sensor_id;sensor_type;location;lat;lon;timestamp;temperature;humidity
55771;DHT22;41687;-33.234;-60.334;2024-01-11T00:00:52;27.10;71.20
55771;DHT22;41687;-33.234;-60.334;2024-01-11T00:03:19;27.10;70.20
55771;DHT22;41687;-33.234;-60.334;2024-01-11T00:05:47;27.10;69.50
55771;DHT22;41687;-33.234;-60.334;2024-01-11T00:08:15;27.10;69.00
55771;DHT22;41687;-33.234;-60.334;2024-01-11T00:10:43;27.10;67.70
55771;DHT22;41687;-33.234;-60.334;2024-01-11T00:13:10;27.10;67.70
55771;DHT22;41687;-33.234;-60.334;2024-01-11T00:15:39;27.10;67.80
55771;DHT22;41687;-33.234;-60.334;2024-01-11T00:18:06;27.10;67.80
55771;DHT22;41687;-33.234;-60.334;2024-01-11T00:20:34;27.10;68.10
55771;DHT22;41687;-33.234;-60.334;2024-01-11T00:23:01;27.00;66.50
55771;DHT22;41687;-33.234;-60.334;2024-01-11T00:25:30;26.90;64.10
55771;DHT22;41687;-33.234;-60.334;2024-01-11T00:27:57;26.90;63.10
55771;DHT22;41687;-33.234;-60.334;2024-01-11T00:30:25;26.90;63.30
55771;DHT22;41687;-33.234;-60.334;2024-01-11T00:32:52;26.80;63.40
55771;DHT22;41687;-33.234;-60.334;2024-01-11T00:35:20;26.90;63.50
55771;DHT22;41687;-33.234;-60.334;2024-01-11T00:37:48;26.80;62.90
55771;DHT22;41687;-33.234;-60.334;2024-01-11T00:40:16;26.80;63.00
55771;DHT22;41687;-33.234;-60.334;2024-01-11T00:42:43;26.70;62.50
55771;DHT22;41687;-33.234;-60.334;2024-01-11T00:45:11;26.70;62.00
55771;DHT22;41687;-33.234;-60.334;2024-01-11T00:47:38;26.70;61.70
55771;DHT22;41687;-33.234;-60.334;2024-01-11T00:50:06;26.80;61.50
55771;DHT22;41687;-33.234;-60.334;2024-01-11T00:52:34;26.70;61.10
55771;DHT22;41687;-33.234;-60.334;2024-01-11T00:55:02;26.70;61.00
55771;DHT22;41687;-33.234;-60.334;2024-01-11T00:57:29;26.70;61.30
55771;DHT22;41687;-33.234;-60.334;2024-01-11T00:59:57;26.80;61.50
55771;DHT22;41687;-33.234;-60.334;2024-01-11T01:02:24;26.80;62.20
55771;DHT22;41687;-33.234;-60.334;2024-01-11T01:04:52;26.70;61.70
55771;DHT22;41687;-33.234;-60.334;2024-01-11T01:07:19;26.60;62.60
55771;DHT22;41687;-33.234;-60.334;2024-01-11T01:09:47;26.60;62.90
55771;DHT22;41687;-33.234;-60.334;2024-01-11T01:12:14;26.60;62.50
55771;DHT22;41687;-33.234;-60.334;2024-01-11T01:14:42;26.60;62.60
55771;DHT22;41687;-33.234;-60.334;2024-01-11T01:17:09;26.60;63.10
55771;DHT22;41687;-33.234;-60.334;2024-01-11T01:19:37;26.60;62.90
55771;DHT22;41687;-33.234;-60.334;2024-01-11T01:22:04;26.60;63.20
55771;DHT22;41687;-33.234;-60.334;2024-01-11T01:24:32;26.60;62.90
55771;DHT22;41687;-33.234;-60.334;2024-01-11T01:27:00;26.60;62.70
55771;DHT22;41687;-33.234;-60.334;2024-01-11T01:29:27;26.60;62.60
55771;DHT22;41687;-33.234;-60.334;2024-01-11T01:31:55;26.60;62.50
55771;DHT22;41687;-33.234;-60.334;2024-01-11T01:34:23;26.60;62.90
55771;DHT22;41687;-33.234;-60.334;2024-01-11T01:36:50;26.50;62.40
55771;DHT22;41687;-33.234;-60.334;2024-01-11T01:39:18;26.50;62.20
55771;DHT22;41687;-33.234;-60.334;2024-01-11T01:41:45;26.50;62.40
55771;DHT22;41687;-33.234;-60.334;2024-01-11T01:44:13;26.50;62.50
55771;DHT22;41687;-33.234;-60.334;2024-01-11T01:46:41;26.40;62.40
55771;DHT22;41687;-33.234;-60.334;2024-01-11T01:49:11;26.40;62.50
55771;DHT22;41687;-33.234;-60.334;2024-01-11T01:51:39;26.40;63.30
55771;DHT22;41687;-33.234;-60.334;2024-01-11T01:54:07;26.30;63.20
55771;DHT22;41687;-33.234;-60.334;2024-01-11T01:56:35;26.40;63.60
55771;DHT22;41687;-33.234;-60.334;2024-01-11T01:59:03;26.30;63.90
55771;DHT22;41687;-33.234;-60.334;2024-01-11T02:01:33;26.30;64.40
55771;DHT22;41687;-33.234;-60.334;2024-01-11T02:04:00;26.30;64.90
55771;DHT22;41687;-33.234;-60.334;2024-01-11T02:06:29;26.20;65.40
55771;DHT22;41687;-33.234;-60.334;2024-01-11T02:08:59;26.20;65.50
55771;DHT22;41687;-33.234;-60.334;2024-01-11T02:11:30;26.20;65.70
55771;DHT22;41687;-33.234;-60.334;2024-01-11T02:13:58;26.20;65.80
55771;DHT22;41687;-33.234;-60.334;2024-01-11T02:16:26;26.20;65.90
55771;DHT22;41687;-33.234;-60.334;2024-01-11T02:18:53;26.20;65.90
55771;DHT22;41687;-33.234;-60.334;2024-01-11T02:21:22;26.20;66.00
55771;DHT22;41687;-33.234;-60.334;2024-01-11T02:24:06;26.10;66.30
55771;DHT22;41687;-33.234;-60.334;2024-01-11T02:26:35;26.10;66.70
55771;DHT22;41687;-33.234;-60.334;2024-01-11T02:29:02;26.00;66.60
55771;DHT22;41687;-33.234;-60.334;2024-01-11T02:31:31;26.00;66.70
55771;DHT22;41687;-33.234;-60.334;2024-01-11T02:33:58;26.00;66.70
55771;DHT22;41687;-33.234;-60.334;2024-01-11T02:36:28;26.00;67.00
55771;DHT22;41687;-33.234;-60.334;2024-01-11T02:38:56;26.00;66.90
55771;DHT22;41687;-33.234;-60.334;2024-01-11T02:41:24;26.00;66.70
55771;DHT22;41687;-33.234;-60.334;2024-01-11T02:43:53;26.00;66.90
55771;DHT22;41687;-33.234;-60.334;2024-01-11T02:46:21;26.00;67.00
55771;DHT22;41687;-33.234;-60.334;2024-01-11T02:48:49;25.90;67.00
55771;DHT22;41687;-33.234;-60.334;2024-01-11T02:51:20;25.90;66.90
55771;DHT22;41687;-33.234;-60.334;2024-01-11T02:53:48;25.90;67.00
55771;DHT22;41687;-33.234;-60.334;2024-01-11T02:56:15;25.90;67.00
55771;DHT22;41687;-33.234;-60.334;2024-01-11T02:58:42;25.90;67.10
55771;DHT22;41687;-33.234;-60.334;2024-01-11T03:01:10;25.80;66.70
55771;DHT22;41687;-33.234;-60.334;2024-01-11T03:03:37;25.90;67.00
55771;DHT22;41687;-33.234;-60.334;2024-01-11T03:06:05;25.80;67.20
55771;DHT22;41687;-33.234;-60.334;2024-01-11T03:08:33;25.80;67.30
55771;DHT22;41687;-33.234;-60.334;2024-01-11T03:11:01;25.70;67.20
55771;DHT22;41687;-33.234;-60.334;2024-01-11T03:13:28;25.70;67.20
55771;DHT22;41687;-33.234;-60.334;2024-01-11T03:15:55;25.70;67.40
55771;DHT22;41687;-33.234;-60.334;2024-01-11T03:18:24;25.70;67.20
55771;DHT22;41687;-33.234;-60.334;2024-01-11T03:20:51;25.60;67.40
55771;DHT22;41687;-33.234;-60.334;2024-01-11T03:23:19;25.60;66.60
55771;DHT22;41687;-33.234;-60.334;2024-01-11T03:25:46;25.70;66.30
55771;DHT22;41687;-33.234;-60.334;2024-01-11T03:28:14;25.70;65.80
55771;DHT22;41687;-33.234;-60.334;2024-01-11T03:30:42;25.70;65.80
55771;DHT22;41687;-33.234;-60.334;2024-01-11T03:33:11;25.60;65.60
55771;DHT22;41687;-33.234;-60.334;2024-01-11T03:35:38;25.60;65.80
55771;DHT22;41687;-33.234;-60.334;2024-01-11T03:38:07;25.60;66.00
55771;DHT22;41687;-33.234;-60.334;2024-01-11T03:40:35;25.40;66.30
55771;DHT22;41687;-33.234;-60.334;2024-01-11T03:43:02;25.50;66.30
55771;DHT22;41687;-33.234;-60.334;2024-01-11T03:45:30;25.40;66.40
55771;DHT22;41687;-33.234;-60.334;2024-01-11T03:48:00;25.40;66.50
55771;DHT22;41687;-33.234;-60.334;2024-01-11T03:50:27;25.40;66.40
55771;DHT22;41687;-33.234;-60.334;2024-01-11T03:52:55;25.40;66.70
55771;DHT22;41687;-33.234;-60.334;2024-01-11T03:55:22;25.40;66.70
55771;DHT22;41687;-33.234;-60.334;2024-01-11T03:57:51;25.30;66.50
55771;DHT22;41687;-33.234;-60.334;2024-01-11T04:00:19;25.30;66.50
55771;DHT22;41687;-33.234;-60.334;2024-01-11T04:02:47;25.30;66.60
55771;DHT22;41687;-33.234;-60.334;2024-01-11T04:05:15;25.30;67.30
55771;DHT22;41687;-33.234;-60.334;2024-01-11T04:07:42;25.20;67.40
55771;DHT22;41687;-33.234;-60.334;2024-01-11T04:10:10;25.20;67.50
55771;DHT22;41687;-33.234;-60.334;2024-01-11T04:12:37;25.20;67.10
55771;DHT22;41687;-33.234;-60.334;2024-01-11T04:15:06;25.20;66.80
55771;DHT22;41687;-33.234;-60.334;2024-01-11T04:17:33;25.10;66.50
55771;DHT22;41687;-33.234;-60.334;2024-01-11T04:20:00;25.10;66.30
55771;DHT22;41687;-33.234;-60.334;2024-01-11T04:22:28;25.10;66.30
55771;DHT22;41687;-33.234;-60.334;2024-01-11T04:24:56;25.10;66.30
55771;DHT22;41687;-33.234;-60.334;2024-01-11T04:27:24;25.20;66.10
55771;DHT22;41687;-33.234;-60.334;2024-01-11T04:29:51;25.20;66.00
55771;DHT22;41687;-33.234;-60.334;2024-01-11T04:32:19;25.20;65.80
55771;DHT22;41687;-33.234;-60.334;2024-01-11T04:34:47;25.20;65.90
55771;DHT22;41687;-33.234;-60.334;2024-01-11T04:37:14;25.20;65.80
55771;DHT22;41687;-33.234;-60.334;2024-01-11T04:39:41;25.20;65.90
55771;DHT22;41687;-33.234;-60.334;2024-01-11T04:42:09;25.10;66.10
55771;DHT22;41687;-33.234;-60.334;2024-01-11T04:44:37;25.20;66.20
55771;DHT22;41687;-33.234;-60.334;2024-01-11T04:47:04;25.20;66.50
55771;DHT22;41687;-33.234;-60.334;2024-01-11T04:49:32;25.20;66.40
55771;DHT22;41687;-33.234;-60.334;2024-01-11T04:51:59;25.20;66.40
55771;DHT22;41687;-33.234;-60.334;2024-01-11T04:54:28;25.20;66.60
55771;DHT22;41687;-33.234;-60.334;2024-01-11T04:56:55;25.20;66.90
55771;DHT22;41687;-33.234;-60.334;2024-01-11T04:59:23;25.20;66.80
55771;DHT22;41687;-33.234;-60.334;2024-01-11T05:01:50;25.20;66.90
55771;DHT22;41687;-33.234;-60.334;2024-01-11T05:04:18;25.20;67.30
55771;DHT22;41687;-33.234;-60.334;2024-01-11T05:06:45;25.20;68.60
55771;DHT22;41687;-33.234;-60.334;2024-01-11T05:09:13;25.10;68.80
55771;DHT22;41687;-33.234;-60.334;2024-01-11T05:11:41;24.90;70.00
55771;DHT22;41687;-33.234;-60.334;2024-01-11T05:14:09;24.90;70.40
55771;DHT22;41687;-33.234;-60.334;2024-01-11T05:16:37;24.80;70.90
55771;DHT22;41687;-33.234;-60.334;2024-01-11T05:19:06;24.70;71.80
55771;DHT22;41687;-33.234;-60.334;2024-01-11T05:21:34;24.60;72.80
55771;DHT22;41687;-33.234;-60.334;2024-01-11T05:24:02;24.40;73.80
55771;DHT22;41687;-33.234;-60.334;2024-01-11T05:26:29;24.20;74.80
55771;DHT22;41687;-33.234;-60.334;2024-01-11T05:28:57;24.20;75.00
55771;DHT22;41687;-33.234;-60.334;2024-01-11T05:31:24;23.90;76.40
55771;DHT22;41687;-33.234;-60.334;2024-01-11T05:33:52;23.80;76.80
55771;DHT22;41687;-33.234;-60.334;2024-01-11T05:36:19;23.80;76.50
55771;DHT22;41687;-33.234;-60.334;2024-01-11T05:38:47;23.70;77.60
55771;DHT22;41687;-33.234;-60.334;2024-01-11T05:41:14;23.70;77.60
55771;DHT22;41687;-33.234;-60.334;2024-01-11T05:43:42;23.60;78.40
55771;DHT22;41687;-33.234;-60.334;2024-01-11T05:46:10;23.40;79.30
55771;DHT22;41687;-33.234;-60.334;2024-01-11T05:48:38;23.40;79.40
55771;DHT22;41687;-33.234;-60.334;2024-01-11T05:51:05;23.40;79.90
55771;DHT22;41687;-33.234;-60.334;2024-01-11T05:53:33;23.30;79.50
55771;DHT22;41687;-33.234;-60.334;2024-01-11T05:56:06;23.30;79.90
55771;DHT22;41687;-33.234;-60.334;2024-01-11T05:58:34;23.30;79.70
55771;DHT22;41687;-33.234;-60.334;2024-01-11T06:01:03;23.30;79.10
55771;DHT22;41687;-33.234;-60.334;2024-01-11T06:03:31;23.20;79.60
55771;DHT22;41687;-33.234;-60.334;2024-01-11T06:06:02;23.20;79.90
55771;DHT22;41687;-33.234;-60.334;2024-01-11T06:08:30;23.20;79.20
55771;DHT22;41687;-33.234;-60.334;2024-01-11T06:10:58;23.20;79.70
55771;DHT22;41687;-33.234;-60.334;2024-01-11T06:13:26;23.20;79.00
55771;DHT22;41687;-33.234;-60.334;2024-01-11T06:15:55;23.30;78.20
55771;DHT22;41687;-33.234;-60.334;2024-01-11T06:18:22;23.30;77.30
55771;DHT22;41687;-33.234;-60.334;2024-01-11T06:20:50;23.30;77.20
55771;DHT22;41687;-33.234;-60.334;2024-01-11T06:23:17;23.30;76.60
55771;DHT22;41687;-33.234;-60.334;2024-01-11T06:25:46;23.40;77.10
55771;DHT22;41687;-33.234;-60.334;2024-01-11T06:28:14;23.40;77.80
55771;DHT22;41687;-33.234;-60.334;2024-01-11T06:30:41;23.40;77.40
55771;DHT22;41687;-33.234;-60.334;2024-01-11T06:33:10;23.40;78.00
55771;DHT22;41687;-33.234;-60.334;2024-01-11T06:35:38;23.40;78.20
55771;DHT22;41687;-33.234;-60.334;2024-01-11T06:38:06;23.30;78.70
55771;DHT22;41687;-33.234;-60.334;2024-01-11T06:40:34;23.40;76.80
55771;DHT22;41687;-33.234;-60.334;2024-01-11T06:43:02;23.20;77.10
55771;DHT22;41687;-33.234;-60.334;2024-01-11T06:45:30;23.20;77.40
55771;DHT22;41687;-33.234;-60.334;2024-01-11T06:47:57;23.10;77.60
55771;DHT22;41687;-33.234;-60.334;2024-01-11T06:50:24;23.10;78.80
55771;DHT22;41687;-33.234;-60.334;2024-01-11T06:52:52;23.00;79.30
55771;DHT22;41687;-33.234;-60.334;2024-01-11T06:55:20;23.00;79.90
55771;DHT22;41687;-33.234;-60.334;2024-01-11T06:57:48;23.00;81.10
55771;DHT22;41687;-33.234;-60.334;2024-01-11T07:00:15;22.90;82.20
55771;DHT22;41687;-33.234;-60.334;2024-01-11T07:02:43;22.90;80.70
55771;DHT22;41687;-33.234;-60.334;2024-01-11T07:05:11;22.90;80.30
55771;DHT22;41687;-33.234;-60.334;2024-01-11T07:07:39;22.80;79.90
55771;DHT22;41687;-33.234;-60.334;2024-01-11T07:10:06;22.80;79.60
55771;DHT22;41687;-33.234;-60.334;2024-01-11T07:12:35;22.80;79.50
55771;DHT22;41687;-33.234;-60.334;2024-01-11T07:15:05;22.80;78.70
55771;DHT22;41687;-33.234;-60.334;2024-01-11T07:17:34;22.60;78.30
55771;DHT22;41687;-33.234;-60.334;2024-01-11T07:20:02;22.50;78.50
55771;DHT22;41687;-33.234;-60.334;2024-01-11T07:22:31;22.50;77.60
55771;DHT22;41687;-33.234;-60.334;2024-01-11T07:24:58;22.60;76.80
55771;DHT22;41687;-33.234;-60.334;2024-01-11T07:27:26;22.60;76.80
55771;DHT22;41687;-33.234;-60.334;2024-01-11T07:29:54;22.50;77.50
55771;DHT22;41687;-33.234;-60.334;2024-01-11T07:32:22;22.40;78.90
55771;DHT22;41687;-33.234;-60.334;2024-01-11T07:34:49;22.30;79.80
55771;DHT22;41687;-33.234;-60.334;2024-01-11T07:37:17;22.30;80.80
55771;DHT22;41687;-33.234;-60.334;2024-01-11T07:39:45;22.30;81.30
55771;DHT22;41687;-33.234;-60.334;2024-01-11T07:42:14;22.30;81.30
55771;DHT22;41687;-33.234;-60.334;2024-01-11T07:44:43;22.30;81.80
55771;DHT22;41687;-33.234;-60.334;2024-01-11T07:47:10;22.30;81.80
55771;DHT22;41687;-33.234;-60.334;2024-01-11T07:49:38;22.30;81.10
55771;DHT22;41687;-33.234;-60.334;2024-01-11T07:52:06;22.30;81.00
55771;DHT22;41687;-33.234;-60.334;2024-01-11T07:54:34;22.30;81.70
55771;DHT22;41687;-33.234;-60.334;2024-01-11T07:57:01;22.30;81.80
55771;DHT22;41687;-33.234;-60.334;2024-01-11T07:59:36;22.30;82.80
55771;DHT22;41687;-33.234;-60.334;2024-01-11T08:02:04;22.30;83.40
55771;DHT22;41687;-33.234;-60.334;2024-01-11T08:04:33;22.20;83.20
55771;DHT22;41687;-33.234;-60.334;2024-01-11T08:07:00;22.20;81.50
55771;DHT22;41687;-33.234;-60.334;2024-01-11T08:09:29;22.20;80.30
55771;DHT22;41687;-33.234;-60.334;2024-01-11T08:11:57;22.30;78.90
55771;DHT22;41687;-33.234;-60.334;2024-01-11T08:14:25;22.30;78.80
55771;DHT22;41687;-33.234;-60.334;2024-01-11T08:16:52;22.20;78.80
55771;DHT22;41687;-33.234;-60.334;2024-01-11T08:19:20;22.20;78.70
55771;DHT22;41687;-33.234;-60.334;2024-01-11T08:21:48;22.20;78.30
55771;DHT22;41687;-33.234;-60.334;2024-01-11T08:24:15;22.10;79.00
55771;DHT22;41687;-33.234;-60.334;2024-01-11T08:26:44;22.00;79.40
55771;DHT22;41687;-33.234;-60.334;2024-01-11T08:29:13;22.00;79.20
55771;DHT22;41687;-33.234;-60.334;2024-01-11T08:31:41;21.90;79.60
55771;DHT22;41687;-33.234;-60.334;2024-01-11T08:34:10;21.90;78.50
55771;DHT22;41687;-33.234;-60.334;2024-01-11T08:36:38;22.00;77.60
55771;DHT22;41687;-33.234;-60.334;2024-01-11T08:39:06;22.10;77.90
55771;DHT22;41687;-33.234;-60.334;2024-01-11T08:41:34;22.00;77.90
55771;DHT22;41687;-33.234;-60.334;2024-01-11T08:44:03;22.10;78.50
55771;DHT22;41687;-33.234;-60.334;2024-01-11T08:46:35;22.10;79.90
55771;DHT22;41687;-33.234;-60.334;2024-01-11T08:49:04;22.10;81.10
55771;DHT22;41687;-33.234;-60.334;2024-01-11T08:51:31;22.10;81.40
55771;DHT22;41687;-33.234;-60.334;2024-01-11T08:53:59;22.20;81.90
55771;DHT22;41687;-33.234;-60.334;2024-01-11T08:56:26;22.20;83.20
55771;DHT22;41687;-33.234;-60.334;2024-01-11T08:58:55;22.20;82.70
55771;DHT22;41687;-33.234;-60.334;2024-01-11T09:01:24;22.30;82.30
55771;DHT22;41687;-33.234;-60.334;2024-01-11T09:03:52;22.30;82.00
55771;DHT22;41687;-33.234;-60.334;2024-01-11T09:06:19;22.40;81.80
55771;DHT22;41687;-33.234;-60.334;2024-01-11T09:08:47;22.40;81.70
55771;DHT22;41687;-33.234;-60.334;2024-01-11T09:11:16;22.50;82.20
55771;DHT22;41687;-33.234;-60.334;2024-01-11T09:13:44;22.50;82.70
55771;DHT22;41687;-33.234;-60.334;2024-01-11T09:16:15;22.40;82.80
55771;DHT22;41687;-33.234;-60.334;2024-01-11T09:18:44;22.40;82.00
55771;DHT22;41687;-33.234;-60.334;2024-01-11T09:21:12;22.30;81.40
55771;DHT22;41687;-33.234;-60.334;2024-01-11T09:23:39;22.30;81.50
55771;DHT22;41687;-33.234;-60.334;2024-01-11T09:26:07;22.20;81.40
55771;DHT22;41687;-33.234;-60.334;2024-01-11T09:28:35;22.20;80.90
55771;DHT22;41687;-33.234;-60.334;2024-01-11T09:31:02;22.10;80.90
55771;DHT22;41687;-33.234;-60.334;2024-01-11T09:33:30;22.10;81.40
55771;DHT22;41687;-33.234;-60.334;2024-01-11T09:35:57;22.10;82.00
55771;DHT22;41687;-33.234;-60.334;2024-01-11T09:38:25;22.00;83.00
55771;DHT22;41687;-33.234;-60.334;2024-01-11T09:41:10;21.90;83.50
55771;DHT22;41687;-33.234;-60.334;2024-01-11T09:43:41;22.00;85.10
55771;DHT22;41687;-33.234;-60.334;2024-01-11T09:46:10;21.90;84.20
55771;DHT22;41687;-33.234;-60.334;2024-01-11T09:48:41;21.90;85.60
55771;DHT22;41687;-33.234;-60.334;2024-01-11T09:51:11;21.90;85.80
55771;DHT22;41687;-33.234;-60.334;2024-01-11T09:53:39;22.00;85.50
55771;DHT22;41687;-33.234;-60.334;2024-01-11T09:56:10;22.00;84.90
55771;DHT22;41687;-33.234;-60.334;2024-01-11T09:58:42;22.00;85.30
55771;DHT22;41687;-33.234;-60.334;2024-01-11T10:01:13;22.10;85.00
55771;DHT22;41687;-33.234;-60.334;2024-01-11T10:03:40;22.10;85.10
55771;DHT22;41687;-33.234;-60.334;2024-01-11T10:06:14;22.10;86.00
55771;DHT22;41687;-33.234;-60.334;2024-01-11T10:08:42;22.20;86.00
55771;DHT22;41687;-33.234;-60.334;2024-01-11T10:11:10;22.30;85.30
55771;DHT22;41687;-33.234;-60.334;2024-01-11T10:13:37;22.40;84.90
55771;DHT22;41687;-33.234;-60.334;2024-01-11T10:16:09;22.50;85.30
55771;DHT22;41687;-33.234;-60.334;2024-01-11T10:18:40;22.50;84.70
55771;DHT22;41687;-33.234;-60.334;2024-01-11T10:21:07;22.60;84.50
55771;DHT22;41687;-33.234;-60.334;2024-01-11T10:23:37;22.50;84.90
55771;DHT22;41687;-33.234;-60.334;2024-01-11T10:26:05;22.50;84.90
55771;DHT22;41687;-33.234;-60.334;2024-01-11T10:28:34;22.60;84.80
55771;DHT22;41687;-33.234;-60.334;2024-01-11T10:31:04;22.60;85.40
55771;DHT22;41687;-33.234;-60.334;2024-01-11T10:33:34;22.60;85.80
55771;DHT22;41687;-33.234;-60.334;2024-01-11T10:36:03;22.60;87.20
55771;DHT22;41687;-33.234;-60.334;2024-01-11T10:38:31;22.80;85.90
55771;DHT22;41687;-33.234;-60.334;2024-01-11T10:41:04;22.90;86.20
55771;DHT22;41687;-33.234;-60.334;2024-01-11T10:43:36;23.10;85.60
55771;DHT22;41687;-33.234;-60.334;2024-01-11T10:46:05;23.10;85.70
55771;DHT22;41687;-33.234;-60.334;2024-01-11T10:48:37;23.20;84.90
55771;DHT22;41687;-33.234;-60.334;2024-01-11T10:51:08;23.20;85.60
55771;DHT22;41687;-33.234;-60.334;2024-01-11T10:53:44;23.30;85.10
55771;DHT22;41687;-33.234;-60.334;2024-01-11T10:56:17;23.40;85.20
55771;DHT22;41687;-33.234;-60.334;2024-01-11T10:58:47;23.40;86.00
55771;DHT22;41687;-33.234;-60.334;2024-01-11T11:01:16;23.50;84.90
55771;DHT22;41687;-33.234;-60.334;2024-01-11T11:03:46;23.50;85.10
55771;DHT22;41687;-33.234;-60.334;2024-01-11T11:06:16;23.60;84.90
55771;DHT22;41687;-33.234;-60.334;2024-01-11T11:08:48;23.70;84.90
55771;DHT22;41687;-33.234;-60.334;2024-01-11T11:11:17;23.80;83.90
55771;DHT22;41687;-33.234;-60.334;2024-01-11T11:13:47;24.00;83.90
55771;DHT22;41687;-33.234;-60.334;2024-01-11T11:16:18;24.00;83.20
55771;DHT22;41687;-33.234;-60.334;2024-01-11T11:18:46;24.10;83.70
55771;DHT22;41687;-33.234;-60.334;2024-01-11T11:21:15;24.30;82.30
55771;DHT22;41687;-33.234;-60.334;2024-01-11T11:23:43;24.40;81.60
55771;DHT22;41687;-33.234;-60.334;2024-01-11T11:26:16;24.50;81.10
55771;DHT22;41687;-33.234;-60.334;2024-01-11T11:28:50;24.60;79.80
55771;DHT22;41687;-33.234;-60.334;2024-01-11T11:31:45;24.70;79.30
55771;DHT22;41687;-33.234;-60.334;2024-01-11T11:34:14;24.50;78.90
55771;DHT22;41687;-33.234;-60.334;2024-01-11T11:36:46;24.40;78.30
55771;DHT22;41687;-33.234;-60.334;2024-01-11T11:39:16;24.20;79.80
55771;DHT22;41687;-33.234;-60.334;2024-01-11T11:41:47;24.30;81.00
55771;DHT22;41687;-33.234;-60.334;2024-01-11T11:44:17;24.50;80.00
55771;DHT22;41687;-33.234;-60.334;2024-01-11T11:46:45;24.60;79.30
55771;DHT22;41687;-33.234;-60.334;2024-01-11T11:49:15;24.70;77.60
55771;DHT22;41687;-33.234;-60.334;2024-01-11T11:51:43;24.90;76.70
55771;DHT22;41687;-33.234;-60.334;2024-01-11T11:54:11;25.10;75.20
55771;DHT22;41687;-33.234;-60.334;2024-01-11T11:56:41;25.10;74.50
55771;DHT22;41687;-33.234;-60.334;2024-01-11T11:59:09;25.20;73.90
55771;DHT22;41687;-33.234;-60.334;2024-01-11T12:01:38;25.40;73.80
55771;DHT22;41687;-33.234;-60.334;2024-01-11T12:04:05;25.40;72.50
55771;DHT22;41687;-33.234;-60.334;2024-01-11T12:06:35;25.60;72.50
55771;DHT22;41687;-33.234;-60.334;2024-01-11T12:09:02;25.70;72.70
55771;DHT22;41687;-33.234;-60.334;2024-01-11T12:11:30;25.60;71.80
55771;DHT22;41687;-33.234;-60.334;2024-01-11T12:13:59;25.80;70.40
55771;DHT22;41687;-33.234;-60.334;2024-01-11T12:16:27;25.90;70.00
55771;DHT22;41687;-33.234;-60.334;2024-01-11T12:18:55;26.00;70.70
55771;DHT22;41687;-33.234;-60.334;2024-01-11T12:21:23;26.20;70.30
55771;DHT22;41687;-33.234;-60.334;2024-01-11T12:23:51;26.40;70.10
55771;DHT22;41687;-33.234;-60.334;2024-01-11T12:26:18;26.40;70.10
55771;DHT22;41687;-33.234;-60.334;2024-01-11T12:28:49;26.50;69.70
55771;DHT22;41687;-33.234;-60.334;2024-01-11T12:31:17;26.70;69.70
55771;DHT22;41687;-33.234;-60.334;2024-01-11T12:33:47;26.70;69.20
55771;DHT22;41687;-33.234;-60.334;2024-01-11T12:36:15;26.80;69.10
55771;DHT22;41687;-33.234;-60.334;2024-01-11T12:38:49;26.90;69.50
55771;DHT22;41687;-33.234;-60.334;2024-01-11T12:41:18;26.90;68.20
55771;DHT22;41687;-33.234;-60.334;2024-01-11T12:43:45;26.90;67.80
55771;DHT22;41687;-33.234;-60.334;2024-01-11T12:46:13;27.10;67.70
55771;DHT22;41687;-33.234;-60.334;2024-01-11T12:48:42;27.10;66.90
55771;DHT22;41687;-33.234;-60.334;2024-01-11T12:51:10;27.10;66.60
55771;DHT22;41687;-33.234;-60.334;2024-01-11T12:53:37;27.20;66.40
55771;DHT22;41687;-33.234;-60.334;2024-01-11T12:56:06;27.20;65.30
55771;DHT22;41687;-33.234;-60.334;2024-01-11T12:58:41;27.30;66.30
55771;DHT22;41687;-33.234;-60.334;2024-01-11T13:01:09;27.50;67.00
55771;DHT22;41687;-33.234;-60.334;2024-01-11T13:03:44;27.70;64.50
55771;DHT22;41687;-33.234;-60.334;2024-01-11T13:06:14;27.80;64.50
55771;DHT22;41687;-33.234;-60.334;2024-01-11T13:08:41;27.80;64.60
55771;DHT22;41687;-33.234;-60.334;2024-01-11T13:11:09;27.70;64.10
55771;DHT22;41687;-33.234;-60.334;2024-01-11T13:13:40;27.90;64.50
55771;DHT22;41687;-33.234;-60.334;2024-01-11T13:16:07;28.10;63.70
55771;DHT22;41687;-33.234;-60.334;2024-01-11T13:18:41;28.10;63.10
55771;DHT22;41687;-33.234;-60.334;2024-01-11T13:21:08;28.40;63.10
55771;DHT22;41687;-33.234;-60.334;2024-01-11T13:23:36;28.20;61.20
55771;DHT22;41687;-33.234;-60.334;2024-01-11T13:26:04;28.40;61.10
55771;DHT22;41687;-33.234;-60.334;2024-01-11T13:28:33;28.50;61.50
55771;DHT22;41687;-33.234;-60.334;2024-01-11T13:31:01;28.70;61.30
55771;DHT22;41687;-33.234;-60.334;2024-01-11T13:33:29;28.80;60.70
55771;DHT22;41687;-33.234;-60.334;2024-01-11T13:35:56;28.70;58.70
55771;DHT22;41687;-33.234;-60.334;2024-01-11T13:38:24;29.00;61.10
55771;DHT22;41687;-33.234;-60.334;2024-01-11T13:40:52;29.30;59.60
55771;DHT22;41687;-33.234;-60.334;2024-01-11T13:43:19;29.50;59.60
55771;DHT22;41687;-33.234;-60.334;2024-01-11T13:45:47;29.50;58.20
55771;DHT22;41687;-33.234;-60.334;2024-01-11T13:48:15;29.70;59.50
55771;DHT22;41687;-33.234;-60.334;2024-01-11T13:50:44;29.70;59.10
55771;DHT22;41687;-33.234;-60.334;2024-01-11T13:53:11;29.50;57.60
55771;DHT22;41687;-33.234;-60.334;2024-01-11T13:55:38;29.20;58.20
55771;DHT22;41687;-33.234;-60.334;2024-01-11T13:58:07;29.10;57.90
55771;DHT22;41687;-33.234;-60.334;2024-01-11T14:00:34;29.30;59.20
55771;DHT22;41687;-33.234;-60.334;2024-01-11T14:03:02;29.50;59.20
55771;DHT22;41687;-33.234;-60.334;2024-01-11T14:05:31;29.30;56.40
55771;DHT22;41687;-33.234;-60.334;2024-01-11T14:07:59;29.70;58.50
55771;DHT22;41687;-33.234;-60.334;2024-01-11T14:10:28;29.70;57.00
55771;DHT22;41687;-33.234;-60.334;2024-01-11T14:12:55;30.00;57.20
55771;DHT22;41687;-33.234;-60.334;2024-01-11T14:15:22;30.10;56.40
55771;DHT22;41687;-33.234;-60.334;2024-01-11T14:17:52;30.50;56.40
55771;DHT22;41687;-33.234;-60.334;2024-01-11T14:20:19;30.60;56.10
55771;DHT22;41687;-33.234;-60.334;2024-01-11T14:22:48;30.50;54.80
55771;DHT22;41687;-33.234;-60.334;2024-01-11T14:25:20;30.50;54.10
55771;DHT22;41687;-33.234;-60.334;2024-01-11T14:27:47;30.50;56.00
55771;DHT22;41687;-33.234;-60.334;2024-01-11T14:30:15;30.20;54.70
55771;DHT22;41687;-33.234;-60.334;2024-01-11T14:32:43;29.70;54.90
55771;DHT22;41687;-33.234;-60.334;2024-01-11T14:35:12;29.40;55.60
55771;DHT22;41687;-33.234;-60.334;2024-01-11T14:37:40;29.40;55.60
55771;DHT22;41687;-33.234;-60.334;2024-01-11T14:40:09;29.20;55.70
55771;DHT22;41687;-33.234;-60.334;2024-01-11T14:42:40;29.00;57.00
55771;DHT22;41687;-33.234;-60.334;2024-01-11T14:45:08;28.90;56.70
55771;DHT22;41687;-33.234;-60.334;2024-01-11T14:47:39;28.60;57.20
55771;DHT22;41687;-33.234;-60.334;2024-01-11T14:50:08;28.30;57.10
55771;DHT22;41687;-33.234;-60.334;2024-01-11T14:52:38;28.30;58.00
55771;DHT22;41687;-33.234;-60.334;2024-01-11T14:55:07;28.50;57.50